Time;durP1;ratioP1;P1;durP2;ratioP2;P2;SDS_P1;SDS_P2;PMS_P1;PMS_P2;Temp;Humidity;BMP_temperature;BMP_pressure;BME280_temperature;BME280_humidity;BME280_pressure;Samples;Min_cycle;Max_cycle;Signal;HPM_P1;HPM_P2
2023/10/06 00:02:07;;;;;;;1999.90;999.90;;;14.30;99.90;;;;;;4978024;28;20534;-71
2023/10/06 00:04:38;;;;;;;1999.90;999.90;;;14.30;99.90;;;;;;4969554;28;20077;-71
2023/10/06 00:07:07;;;;;;;1999.90;999.90;;;14.30;99.90;;;;;;4974107;28;20042;-71
2023/10/06 00:09:33;;;;;;;1999.90;999.90;;;14.30;99.90;;;;;;4973891;28;20060;-71
2023/10/06 00:11:59;;;;;;;1999.90;999.90;;;14.30;99.90;;;;;;4981661;28;20047;-71
2023/10/06 00:14:40;;;;;;;1999.90;999.90;;;14.30;99.90;;;;;;4979456;28;20050;-71
2023/10/06 00:17:11;;;;;;;1999.90;999.90;;;14.30;99.90;;;;;;4981395;28;20084;-71
2023/10/06 00:19:39;;;;;;;1999.90;999.90;;;14.30;99.90;;;;;;4978652;28;20398;-71
2023/10/06 00:22:17;;;;;;;1999.90;999.90;;;14.20;99.90;;;;;;4976806;28;20055;-71
2023/10/06 00:24:46;;;;;;;1999.90;999.90;;;14.20;99.90;;;;;;4967247;28;20055;-71
2023/10/06 00:27:18;;;;;;;1999.90;999.90;;;14.20;99.90;;;;;;4970917;28;20091;-71
2023/10/06 00:29:47;;;;;;;1999.90;999.90;;;14.20;99.90;;;;;;4978209;28;20058;-71
2023/10/06 00:32:23;;;;;;;1999.90;999.90;;;14.10;99.90;;;;;;4987020;28;20050;-71
2023/10/06 00:35:11;;;;;;;1999.90;999.90;;;14.10;99.90;;;;;;4975433;28;20047;-71
2023/10/06 00:37:41;;;;;;;1999.90;999.90;;;14.10;99.90;;;;;;4976596;28;20054;-71
2023/10/06 00:40:19;;;;;;;1999.90;999.90;;;14.10;99.90;;;;;;4977233;28;20444;-71
2023/10/06 00:42:51;;;;;;;1999.90;999.90;;;14.20;99.90;;;;;;4983156;28;20104;-71
2023/10/06 00:45:16;;;;;;;1999.90;999.90;;;14.20;99.90;;;;;;4984797;28;20441;-71
2023/10/06 00:47:42;;;;;;;1999.90;999.90;;;14.30;99.90;;;;;;5020480;28;20042;-71
2023/10/06 00:50:11;;;;;;;1999.90;999.90;;;14.30;99.90;;;;;;4981176;28;20501;-71
2023/10/06 00:52:39;;;;;;;1999.90;999.90;;;14.30;99.90;;;;;;4979484;28;20074;-71
2023/10/06 00:55:14;;;;;;;1999.90;999.90;;;14.30;99.90;;;;;;4953600;28;20058;-71
2023/10/06 00:57:40;;;;;;;1999.90;999.90;;;14.30;99.90;;;;;;4975843;28;20422;-71
2023/10/06 01:00:21;;;;;;;1999.90;999.90;;;14.30;99.90;;;;;;4983614;28;20446;-71
2023/10/06 01:02:47;;;;;;;1999.90;999.90;;;14.30;99.90;;;;;;4975778;28;20042;-71
2023/10/06 01:05:15;;;;;;;1999.90;999.90;;;14.30;99.90;;;;;;4986370;28;20046;-70
2023/10/06 01:07:41;;;;;;;1999.90;999.90;;;14.30;99.90;;;;;;4982321;28;20043;-71
2023/10/06 01:10:16;;;;;;;1999.90;999.90;;;14.30;99.90;;;;;;4985558;28;20042;-70
2023/10/06 01:12:41;;;;;;;;;;;14.30;99.90;;;;;;4982517;28;20123;-71
2023/10/06 01:15:17;;;;;;;1999.90;999.90;;;14.30;99.90;;;;;;4977104;28;19965;-71
2023/10/06 01:17:47;;;;;;;1999.90;999.90;;;14.40;99.90;;;;;;4970996;28;20043;-71
2023/10/06 01:20:33;;;;;;;1999.90;999.90;;;14.40;99.90;;;;;;4977809;28;20038;-71
2023/10/06 01:23:00;;;;;;;1999.90;999.90;;;14.30;99.90;;;;;;4979121;28;20042;-71
2023/10/06 01:25:26;;;;;;;1999.90;999.90;;;14.40;99.90;;;;;;4974018;28;20050;-71
2023/10/06 01:27:52;;;;;;;1999.90;999.90;;;14.40;99.90;;;;;;4976945;28;20545;-71
2023/10/06 01:30:18;;;;;;;1999.90;999.90;;;14.40;99.90;;;;;;4978276;28;20493;-71
2023/10/06 01:32:45;;;;;;;1999.90;999.90;;;14.40;99.90;;;;;;4984625;28;20054;-71
2023/10/06 01:35:12;;;;;;;1999.90;999.90;;;14.50;99.90;;;;;;4974193;28;20038;-71
2023/10/06 01:37:45;;;;;;;1999.90;999.90;;;14.50;99.90;;;;;;4981683;28;20072;-71
2023/10/06 01:42:51;;;;;;;1999.90;999.90;;;14.50;99.90;;;;;;4976057;28;20073;-71
2023/10/06 01:45:21;;;;;;;1999.90;999.90;;;14.50;99.90;;;;;;4970160;28;20035;-70
2023/10/06 01:47:50;;;;;;;1999.90;999.90;;;14.50;99.90;;;;;;4977676;28;20038;-71
2023/10/06 01:50:17;;;;;;;1999.90;999.90;;;14.60;99.90;;;;;;4982897;28;20042;-71
2023/10/06 01:52:43;;;;;;;1999.90;999.90;;;14.60;99.90;;;;;;4984112;28;20276;-71
2023/10/06 01:55:09;;;;;;;1999.90;999.90;;;14.60;99.90;;;;;;4969578;28;20138;-71
2023/10/06 01:57:35;;;;;;;1999.90;999.90;;;14.60;99.90;;;;;;4988943;28;20042;-71
2023/10/06 02:00:01;;;;;;;1999.90;999.90;;;14.60;99.90;;;;;;4970865;28;20138;-71
2023/10/06 02:02:28;;;;;;;1999.90;999.90;;;14.60;99.90;;;;;;4974800;28;20034;-71
2023/10/06 02:04:57;;;;;;;1999.90;999.90;;;14.60;99.90;;;;;;4977137;28;20038;-71
2023/10/06 02:07:22;;;;;;;1999.90;999.90;;;14.60;99.90;;;;;;4974543;28;20046;-71
2023/10/06 02:09:49;;;;;;;1999.90;999.90;;;14.60;99.90;;;;;;4983075;28;20092;-71
2023/10/06 02:12:15;;;;;;;1999.90;999.90;;;14.60;99.90;;;;;;4975446;28;20620;-71
2023/10/06 02:14:41;;;;;;;1999.90;999.90;;;14.60;99.90;;;;;;4974703;28;20061;-71
2023/10/06 02:17:08;;;;;;;1999.90;999.90;;;14.60;99.90;;;;;;4980294;28;20397;-71
2023/10/06 02:19:36;;;;;;;1999.90;999.90;;;14.60;99.90;;;;;;4984957;28;20043;-71
2023/10/06 02:22:06;;;;;;;1999.90;999.90;;;14.60;99.90;;;;;;4974992;28;20046;-71
2023/10/06 02:24:32;;;;;;;1999.90;999.90;;;14.60;99.90;;;;;;4972216;28;20089;-71
2023/10/06 02:27:00;;;;;;;1999.90;999.90;;;14.60;99.90;;;;;;4983654;28;20046;-71
2023/10/06 02:29:26;;;;;;;1999.90;999.90;;;14.60;99.90;;;;;;4983883;28;20057;-71
2023/10/06 02:32:06;;;;;;;1999.90;999.90;;;14.70;99.90;;;;;;4982995;28;20394;-71
2023/10/06 02:34:38;;;;;;;1999.90;999.90;;;14.60;99.90;;;;;;4970693;28;20465;-71
2023/10/06 02:37:08;;;;;;;1999.90;999.90;;;14.60;99.90;;;;;;4974202;28;20070;-71
2023/10/06 02:39:37;;;;;;;1999.90;999.90;;;14.60;99.90;;;;;;4983391;28;20509;-71
2023/10/06 02:42:09;;;;;;;1999.90;999.90;;;14.60;99.90;;;;;;4980999;28;20384;-71
2023/10/06 02:44:40;;;;;;;1999.90;999.90;;;14.50;99.90;;;;;;4983575;28;20046;-70
2023/10/06 02:47:09;;;;;;;1999.90;999.90;;;14.50;99.90;;;;;;4971111;28;20047;-71
2023/10/06 02:49:48;;;;;;;1999.90;999.90;;;14.50;99.90;;;;;;5002942;28;20081;-71
2023/10/06 02:52:20;;;;;;;1999.90;999.90;;;14.40;99.90;;;;;;4981244;28;20127;-71
2023/10/06 02:55:04;;;;;;;1999.90;999.90;;;14.30;99.90;;;;;;4984426;28;20497;-71
2023/10/06 02:57:35;;;;;;;1999.90;999.90;;;14.30;99.90;;;;;;4984689;28;20485;-71
2023/10/06 03:00:28;;;;;;;1999.90;999.90;;;14.30;99.90;;;;;;4975878;28;20042;-71
2023/10/06 03:02:56;;;;;;;1999.90;999.90;;;14.40;99.90;;;;;;4984208;28;20043;-71
2023/10/06 03:05:31;;;;;;;1999.90;999.90;;;14.40;99.90;;;;;;4981537;28;20116;-71
2023/10/06 03:07:58;;;;;;;1999.90;999.90;;;14.40;99.90;;;;;;4983480;28;20030;-70
2023/10/06 03:10:27;;;;;;;1999.90;999.90;;;14.40;99.90;;;;;;4980897;28;20065;-70
2023/10/06 03:12:57;;;;;;;1999.90;999.90;;;14.40;99.90;;;;;;4989330;28;20046;-71
2023/10/06 03:15:35;;;;;;;1999.90;999.90;;;14.40;99.90;;;;;;4974044;28;20560;-71
2023/10/06 03:18:02;;;;;;;1999.90;999.90;;;14.40;99.90;;;;;;4974997;28;20100;-70
2023/10/06 03:20:40;;;;;;;1999.90;999.90;;;14.30;99.90;;;;;;4979346;28;20039;-70
2023/10/06 03:23:13;;;;;;;1999.90;999.90;;;14.30;99.90;;;;;;4982083;28;20463;-71
2023/10/06 03:25:39;;;;;;;1999.90;999.90;;;14.30;99.90;;;;;;5000206;28;20081;-71
2023/10/06 03:28:05;;;;;;;1999.90;999.90;;;14.20;99.90;;;;;;5005833;28;20050;-71
2023/10/06 03:30:34;;;;;;;1999.90;999.90;;;14.20;99.90;;;;;;4984027;28;20414;-70
2023/10/06 03:33:03;;;;;;;1999.90;999.90;;;14.20;99.90;;;;;;4955022;28;20097;-71
2023/10/06 03:35:45;;;;;;;1999.90;999.90;;;14.10;99.90;;;;;;5003314;28;20050;-71
2023/10/06 03:43:34;;;;;;;1999.90;999.90;;;14.20;99.90;;;;;;4986995;28;20042;-70
2023/10/06 03:46:00;;;;;;;1999.90;999.90;;;14.20;99.90;;;;;;4979319;28;20117;-71
2023/10/06 03:48:29;;;;;;;1999.90;999.90;;;14.20;99.90;;;;;;4983375;28;20050;-71
2023/10/06 03:50:55;;;;;;;1999.90;999.90;;;14.20;99.90;;;;;;4975484;28;20046;-71
2023/10/06 03:53:23;;;;;;;1999.90;999.90;;;14.20;99.90;;;;;;4976580;28;20030;-71
2023/10/06 03:55:49;;;;;;;1999.90;999.90;;;14.20;99.90;;;;;;4986281;28;20058;-71
2023/10/06 03:58:17;;;;;;;1999.90;999.90;;;14.20;99.90;;;;;;4976807;28;20042;-71
2023/10/06 04:00:49;;;;;;;1999.90;999.90;;;14.20;99.90;;;;;;4973525;28;20049;-71
2023/10/06 04:03:17;;;;;;;1999.90;999.90;;;14.10;99.90;;;;;;4967255;28;20038;-71
2023/10/06 04:05:50;;;;;;;1999.90;999.90;;;14.10;99.90;;;;;;4983671;28;20052;-71
2023/10/06 04:08:23;;;;;;;1999.90;999.90;;;14.10;99.90;;;;;;4987145;28;20043;-70
2023/10/06 04:10:57;;;;;;;1999.90;999.90;;;14.10;99.90;;;;;;4978779;28;20038;-71
2023/10/06 04:13:23;;;;;;;1999.90;999.90;;;14.10;99.90;;;;;;4988059;28;20034;-70
2023/10/06 04:15:49;;;;;;;1999.90;999.90;;;14.20;99.90;;;;;;4988575;28;20083;-70
2023/10/06 04:18:21;;;;;;;1999.90;999.90;;;14.10;99.90;;;;;;4984892;28;20046;-70
2023/10/06 04:20:48;;;;;;;1999.90;999.90;;;14.20;99.90;;;;;;4986371;28;20050;-70
2023/10/06 04:23:16;;;;;;;1999.90;999.90;;;14.20;99.90;;;;;;4979866;28;20042;-70
2023/10/06 04:25:43;;;;;;;1999.90;999.90;;;14.20;99.90;;;;;;4986605;28;20043;-70
2023/10/06 04:28:11;;;;;;;1999.90;999.90;;;14.20;99.90;;;;;;4987292;28;20562;-70
2023/10/06 04:30:37;;;;;;;1999.90;999.90;;;14.20;99.90;;;;;;4984085;28;20047;-70
2023/10/06 04:33:04;;;;;;;1999.90;999.90;;;14.20;99.90;;;;;;4979211;28;20392;-71
2023/10/06 04:35:33;;;;;;;1999.90;999.90;;;14.20;99.90;;;;;;4987267;28;20121;-70
2023/10/06 04:38:03;;;;;;;1999.90;999.90;;;14.20;99.90;;;;;;4981284;28;20046;-71
2023/10/06 04:40:29;;;;;;;1999.90;999.90;;;14.20;99.90;;;;;;4989151;28;20121;-70
2023/10/06 04:42:56;;;;;;;1999.90;999.90;;;14.20;99.90;;;;;;4981081;28;20046;-70
2023/10/06 04:45:22;;;;;;;1999.90;999.90;;;14.20;99.90;;;;;;4980430;28;20042;-71
2023/10/06 04:47:48;;;;;;;1999.90;999.90;;;14.20;99.90;;;;;;4969650;28;20049;-70
2023/10/06 04:50:15;;;;;;;1999.90;999.90;;;14.20;99.90;;;;;;4985852;28;20046;-71
2023/10/06 04:52:46;;;;;;;1999.90;999.90;;;14.20;99.90;;;;;;4989195;28;20468;-71
2023/10/06 04:55:13;;;;;;;1999.90;999.90;;;14.20;99.90;;;;;;4990208;28;20125;-71
2023/10/06 04:57:42;;;;;;;1999.90;999.90;;;14.20;99.90;;;;;;4981748;28;20047;-70
2023/10/06 05:00:19;;;;;;;1999.90;999.90;;;14.20;99.90;;;;;;4977199;28;20034;-70
2023/10/06 05:02:47;;;;;;;1999.90;999.90;;;14.30;99.90;;;;;;4985850;28;20078;-70
2023/10/06 05:05:13;;;;;;;1999.90;999.90;;;14.20;99.90;;;;;;4991924;28;20030;-71
2023/10/06 05:07:39;;;;;;;1999.90;999.90;;;14.20;99.90;;;;;;4984819;28;20048;-71
2023/10/06 05:10:13;;;;;;;1999.90;999.90;;;14.30;99.90;;;;;;4991537;28;20425;-70
2023/10/06 05:12:42;;;;;;;1999.90;999.90;;;14.20;99.90;;;;;;4983106;28;20050;-71
2023/10/06 05:15:08;;;;;;;1999.90;999.90;;;14.30;99.90;;;;;;4975813;28;20042;-71
2023/10/06 05:17:35;;;;;;;1999.90;999.90;;;14.30;99.90;;;;;;4976639;28;20042;-70
2023/10/06 05:20:01;;;;;;;1999.90;999.90;;;14.20;99.90;;;;;;4981938;28;20045;-72
2023/10/06 05:22:27;;;;;;;1999.90;999.90;;;14.20;99.90;;;;;;4980467;28;20058;-70
2023/10/06 05:24:53;;;;;;;1999.90;999.90;;;14.30;99.90;;;;;;4968260;28;20046;-70
2023/10/06 05:27:22;;;;;;;1999.90;999.90;;;14.20;99.90;;;;;;4985416;28;20047;-71
2023/10/06 05:29:50;;;;;;;1999.90;999.90;;;14.20;99.90;;;;;;4967116;28;20081;-70
2023/10/06 05:32:17;;;;;;;1999.90;999.90;;;14.20;99.90;;;;;;4980893;28;20383;-70
2023/10/06 05:34:42;;;;;;;1999.90;999.90;;;14.20;99.90;;;;;;4982776;28;20055;-71
2023/10/06 05:37:08;;;;;;;1999.90;999.90;;;14.20;99.90;;;;;;4976699;28;20030;-71
2023/10/06 05:39:34;;;;;;;1999.90;999.90;;;14.20;99.90;;;;;;5020155;28;20056;-71
2023/10/06 05:42:02;;;;;;;1999.90;999.90;;;14.20;99.90;;;;;;4973051;28;20051;-71
2023/10/06 05:44:28;;;;;;;1999.90;999.90;;;14.20;99.90;;;;;;4987999;28;20046;-70
2023/10/06 05:46:54;;;;;;;1999.90;999.90;;;14.10;99.90;;;;;;4984162;28;20042;-71
2023/10/06 05:49:21;;;;;;;1999.90;999.90;;;14.20;99.90;;;;;;4981760;28;20384;-71
2023/10/06 05:51:50;;;;;;;1999.90;999.90;;;14.20;99.90;;;;;;4970044;28;20415;-71
2023/10/06 05:54:26;;;;;;;1999.90;999.90;;;14.20;99.90;;;;;;4986859;28;20046;-71
2023/10/06 05:56:53;;;;;;;1999.90;999.90;;;14.20;99.90;;;;;;4981496;28;20038;-70
2023/10/06 05:59:22;;;;;;;1999.90;999.90;;;14.30;99.90;;;;;;4982239;28;20383;-71
2023/10/06 06:01:56;;;;;;;1999.90;999.90;;;14.30;99.90;;;;;;4982141;28;20125;-71
2023/10/06 06:04:27;;;;;;;1999.90;999.90;;;14.20;99.90;;;;;;4977049;28;20050;-71
2023/10/06 06:06:56;;;;;;;1999.90;999.90;;;14.30;99.90;;;;;;4986875;28;20079;-71
2023/10/06 06:09:23;;;;;;;1999.90;999.90;;;14.30;99.90;;;;;;4979975;28;20076;-71
2023/10/06 06:11:48;;;;;;;1999.90;999.90;;;14.30;99.90;;;;;;4984445;28;20051;-70
2023/10/06 06:14:14;;;;;;;1999.90;999.90;;;14.30;99.90;;;;;;4982414;28;20040;-71
2023/10/06 06:16:44;;;;;;;1999.90;999.90;;;14.40;99.90;;;;;;4981333;28;20057;-71
2023/10/06 06:19:11;;;;;;;1999.90;999.90;;;14.40;99.90;;;;;;4980163;28;20109;-70
2023/10/06 06:21:40;;;;;;;1999.90;999.90;;;14.40;99.90;;;;;;4980833;28;20818;-71
2023/10/06 06:24:06;;;;;;;1999.90;999.90;;;14.40;99.90;;;;;;4982497;28;20515;-70
2023/10/06 06:26:38;;;;;;;1999.90;999.90;;;14.40;99.90;;;;;;4970054;28;20462;-71
2023/10/06 06:29:05;;;;;;;1999.90;999.90;;;14.40;99.90;;;;;;4979126;28;20097;-71
2023/10/06 06:31:32;;;;;;;1999.90;999.90;;;14.40;99.90;;;;;;4970765;28;20082;-71
2023/10/06 06:33:59;;;;;;;1999.90;999.90;;;14.40;99.90;;;;;;4982466;28;20046;-71
2023/10/06 06:36:31;;;;;;;1999.90;999.90;;;14.50;99.90;;;;;;4979510;28;20414;-71
2023/10/06 06:38:58;;;;;;;1999.90;999.90;;;14.40;99.90;;;;;;4978509;28;20439;-71
2023/10/06 06:41:24;;;;;;;1999.90;999.90;;;14.50;99.90;;;;;;4966473;28;20520;-70
2023/10/06 06:43:54;;;;;;;1999.90;999.90;;;14.50;99.90;;;;;;4982704;28;20177;-71
2023/10/06 06:46:21;;;;;;;1999.90;999.90;;;14.60;99.90;;;;;;4983338;28;20042;-71
2023/10/06 06:48:46;;;;;;;1999.90;999.90;;;14.60;99.90;;;;;;4981426;28;20050;-71
2023/10/06 06:51:12;;;;;;;1999.90;999.90;;;14.60;99.90;;;;;;4978489;28;20050;-71
2023/10/06 06:53:39;;;;;;;1999.90;999.90;;;14.70;99.90;;;;;;4983979;28;20054;-71
2023/10/06 06:56:05;;;;;;;1999.90;999.90;;;14.70;99.90;;;;;;4981774;28;20046;-71
2023/10/06 06:58:32;;;;;;;1999.90;999.90;;;14.80;99.90;;;;;;4979165;28;20046;-70
2023/10/06 07:00:58;;;;;;;1999.90;999.90;;;14.80;99.90;;;;;;4979525;28;20147;-71
2023/10/06 07:03:24;;;;;;;1999.90;999.90;;;14.80;99.90;;;;;;4981582;28;20044;-71
2023/10/06 07:05:50;;;;;;;1999.90;999.90;;;14.80;99.90;;;;;;4980314;28;20050;-70
2023/10/06 07:08:16;;;;;;;1999.90;999.90;;;14.80;99.90;;;;;;4976733;28;20043;-71
2023/10/06 07:10:52;;;;;;;1999.90;999.90;;;14.80;99.90;;;;;;4977573;28;20046;-70
2023/10/06 07:13:22;;;;;;;1999.90;999.90;;;14.80;99.90;;;;;;4978231;28;20042;-70
2023/10/06 07:15:51;;;;;;;1999.90;999.90;;;14.80;99.90;;;;;;4983251;28;20047;-71
2023/10/06 07:18:19;;;;;;;1999.90;999.90;;;14.80;99.90;;;;;;4983502;28;20053;-71
2023/10/06 07:20:45;;;;;;;1999.90;999.90;;;14.80;99.90;;;;;;4979244;28;20050;-71
2023/10/06 07:23:11;;;;;;;1999.90;999.90;;;14.90;99.90;;;;;;4978891;28;20047;-71
2023/10/06 07:25:37;;;;;;;1999.90;999.90;;;14.90;99.90;;;;;;4976329;28;20185;-71
2023/10/06 07:28:05;;;;;;;1999.90;999.90;;;14.90;99.90;;;;;;4977284;28;20034;-71
2023/10/06 07:30:37;;;;;;;1999.90;999.90;;;14.90;99.90;;;;;;4979308;28;20495;-71
2023/10/06 07:33:03;;;;;;;1999.90;999.90;;;15.00;99.90;;;;;;5003225;28;20038;-71
2023/10/06 07:35:36;;;;;;;1999.90;999.90;;;15.10;99.90;;;;;;4970555;28;20035;-71
2023/10/06 07:38:03;;;;;;;1999.90;999.90;;;15.20;99.90;;;;;;4985825;28;20054;-70
2023/10/06 07:40:29;;;;;;;1999.90;999.90;;;15.30;99.90;;;;;;4978729;28;20040;-70
2023/10/06 07:42:55;;;;;;;1999.90;999.90;;;15.30;99.90;;;;;;4982724;28;20038;-71
2023/10/06 07:45:21;;;;;;;1999.90;999.90;;;15.30;99.90;;;;;;5013904;28;20046;-71
2023/10/06 07:47:48;;;;;;;1999.90;999.90;;;15.30;99.90;;;;;;4976295;28;20087;-71
2023/10/06 07:50:15;;;;;;;1999.90;999.90;;;15.30;99.90;;;;;;4968955;28;20049;-71
2023/10/06 07:52:46;;;;;;;1999.90;999.90;;;15.30;99.90;;;;;;4970549;28;20034;-71
2023/10/06 07:55:12;;;;;;;1999.90;999.90;;;15.30;99.90;;;;;;4977286;28;20647;-71
2023/10/06 07:57:41;;;;;;;1999.90;999.90;;;15.30;99.90;;;;;;4975714;28;20034;-71
2023/10/06 08:00:14;;;;;;;1999.90;999.90;;;15.30;99.90;;;;;;4981110;28;20038;-71
2023/10/06 08:02:39;;;;;;;1999.90;999.90;;;15.30;99.90;;;;;;4971876;28;20034;-71
2023/10/06 08:05:11;;;;;;;1999.90;999.90;;;15.40;99.90;;;;;;4970020;28;20092;-71
2023/10/06 08:07:42;;;;;;;1999.90;999.90;;;15.60;99.90;;;;;;4975960;28;20057;-71
2023/10/06 08:10:13;;;;;;;1999.90;999.90;;;15.60;99.90;;;;;;4973817;28;20403;-70
2023/10/06 08:12:40;;;;;;;1999.90;999.90;;;15.80;99.90;;;;;;4980769;28;20461;-71
2023/10/06 08:15:09;;;;;;;1999.90;999.90;;;15.90;99.90;;;;;;4973210;28;20039;-71
2023/10/06 08:17:35;;;;;;;1999.90;999.90;;;16.00;99.90;;;;;;4974859;28;20152;-71
2023/10/06 08:20:02;;;;;;;1999.90;999.90;;;16.10;99.90;;;;;;4978586;28;20141;-71
2023/10/06 08:22:29;;;;;;;1999.90;999.90;;;16.20;99.90;;;;;;4978774;28;20495;-71
2023/10/06 08:25:05;;;;;;;1999.90;999.90;;;16.20;99.90;;;;;;4958649;28;20125;-70
2023/10/06 08:27:39;;;;;;;1999.90;999.90;;;16.20;99.90;;;;;;4972476;28;20047;-71
2023/10/06 08:30:09;;;;;;;1999.90;999.90;;;16.30;99.90;;;;;;4975447;28;20068;-71
2023/10/06 08:32:35;;;;;;;1999.90;999.90;;;16.40;99.90;;;;;;4975242;28;20126;-71
2023/10/06 08:35:00;;;;;;;1999.90;999.90;;;16.50;99.90;;;;;;4955055;28;20129;-71
2023/10/06 08:37:26;;;;;;;1999.90;999.90;;;16.60;99.90;;;;;;5003953;28;20112;-71
2023/10/06 08:39:52;;;;;;;1999.90;999.90;;;16.60;99.90;;;;;;5014499;28;20142;-71
2023/10/06 08:42:19;;;;;;;1999.90;999.90;;;16.70;99.90;;;;;;5006722;28;20423;-71
2023/10/06 08:44:45;;;;;;;1999.90;999.90;;;16.60;99.90;;;;;;4987855;28;20058;-71
2023/10/06 08:47:13;;;;;;;1999.90;999.90;;;16.70;99.90;;;;;;4997633;28;20037;-71
2023/10/06 08:49:48;;;;;;;1999.90;999.90;;;16.70;99.90;;;;;;4980902;28;20122;-72
2023/10/06 08:52:17;;;;;;;1999.90;999.90;;;16.90;99.90;;;;;;4978072;28;20172;-71
2023/10/06 08:54:45;;;;;;;1999.90;999.90;;;17.10;99.90;;;;;;4981709;28;20079;-72
2023/10/06 08:57:17;;;;;;;1999.90;999.90;;;17.30;99.90;;;;;;5016411;28;20077;-71
2023/10/06 08:59:45;;;;;;;1999.90;999.90;;;17.30;99.90;;;;;;4983730;28;20123;-72
2023/10/06 09:02:16;;;;;;;1999.90;999.90;;;17.40;99.90;;;;;;5008053;28;20077;-72
2023/10/06 09:04:43;;;;;;;1999.90;999.90;;;17.30;99.90;;;;;;4974623;28;20097;-71
2023/10/06 09:07:20;;;;;;;1999.90;999.90;;;17.30;99.90;;;;;;5033666;28;20082;-72
2023/10/06 09:09:47;;;;;;;1999.90;999.90;;;17.30;99.90;;;;;;4979932;28;20034;-71
2023/10/06 09:12:26;;;;;;;1999.90;999.90;;;17.30;99.90;;;;;;4982254;28;20042;-71
2023/10/06 09:14:54;;;;;;;1999.90;999.90;;;17.30;99.90;;;;;;4973656;28;20470;-71
2023/10/06 09:17:30;;;;;;;1999.90;999.90;;;17.30;99.90;;;;;;4977032;28;20379;-72
2023/10/06 09:19:56;;;;;;;1999.90;999.90;;;17.30;99.90;;;;;;5011476;28;20073;-71
2023/10/06 09:22:28;;;;;;;1999.90;999.90;;;17.40;99.90;;;;;;4991340;28;20125;-72
2023/10/06 09:25:04;;;;;;;1999.90;999.90;;;17.40;99.90;;;;;;4991801;28;20054;-71
2023/10/06 09:27:31;;;;;;;1999.90;999.90;;;17.40;99.90;;;;;;5006132;27;20046;-72
2023/10/06 09:30:07;;;;;;;1999.90;999.90;;;17.40;99.90;;;;;;4980954;28;20086;-72
2023/10/06 09:32:34;;;;;;;1999.90;999.90;;;17.50;99.90;;;;;;5005115;28;20050;-72
2023/10/06 09:35:20;;;;;;;1999.90;999.90;;;17.50;99.90;;;;;;5014170;28;20109;-72
2023/10/06 09:37:46;;;;;;;1999.90;999.90;;;17.50;99.90;;;;;;4975351;28;20053;-72
2023/10/06 09:40:20;;;;;;;1999.90;999.90;;;17.50;99.90;;;;;;4980311;28;20034;-71
2023/10/06 09:42:54;;;;;;;1999.90;999.90;;;17.60;99.90;;;;;;4982365;28;20055;-73
2023/10/06 09:45:24;;;;;;;1999.90;999.90;;;17.60;99.90;;;;;;4970168;28;20053;-72
2023/10/06 09:47:56;;;;;;;1999.90;999.90;;;17.60;99.90;;;;;;4971756;28;20442;-73
2023/10/06 09:50:22;;;;;;;1999.90;999.90;;;17.60;99.90;;;;;;4974184;28;20046;-72
2023/10/06 09:52:50;;;;;;;1999.90;999.90;;;17.70;99.90;;;;;;4972254;28;20042;-72
2023/10/06 09:55:17;;;;;;;1999.90;999.90;;;17.70;99.90;;;;;;4972872;28;20038;-72
2023/10/06 09:57:47;;;;;;;1999.90;999.90;;;17.90;99.90;;;;;;4972403;28;20180;-73
2023/10/06 10:00:19;;;;;;;1999.90;999.90;;;18.00;99.90;;;;;;5004704;28;20050;-72
2023/10/06 10:02:47;;;;;;;1999.90;999.90;;;18.00;99.90;;;;;;4970193;28;20042;-72
2023/10/06 10:05:14;;;;;;;1999.90;999.90;;;18.10;99.90;;;;;;4955584;28;20399;-72
2023/10/06 10:07:41;;;;;;;1999.90;999.90;;;18.20;99.90;;;;;;4977134;28;20073;-71
2023/10/06 10:10:11;;;;;;;1999.90;999.90;;;18.20;99.90;;;;;;4976906;28;20088;-72
2023/10/06 10:12:57;;;;;;;1999.90;999.90;;;18.20;99.90;;;;;;4972899;28;20054;-72
2023/10/06 10:15:26;;;;;;;1999.90;999.90;;;18.20;99.90;;;;;;4972282;28;20050;-71
2023/10/06 10:18:23;;;;;;;1999.90;999.90;;;18.20;99.90;;;;;;4986342;28;20140;-72
2023/10/06 10:20:49;;;;;;;1999.90;999.90;;;18.20;99.90;;;;;;4971548;28;20436;-72
2023/10/06 10:23:16;;;;;;;1999.90;999.90;;;18.20;99.90;;;;;;4970101;28;20537;-72
2023/10/06 10:25:42;;;;;;;1999.90;999.90;;;18.20;99.90;;;;;;4970193;28;20039;-72
2023/10/06 10:28:27;;;;;;;1999.90;999.90;;;18.20;99.90;;;;;;4970897;28;20050;-73
2023/10/06 10:31:04;;;;;;;1999.90;999.90;;;18.20;99.90;;;;;;4972940;28;20493;-73
2023/10/06 10:33:37;;;;;;;1999.90;999.90;;;18.50;99.90;;;;;;4972932;28;20043;-73
2023/10/06 10:36:15;;;;;;;1999.90;999.90;;;18.70;99.90;;;;;;4980923;28;20046;-72
2023/10/06 10:38:42;;;;;;;1999.90;999.90;;;19.00;99.90;;;;;;4975521;28;20046;-73
2023/10/06 10:41:09;;;;;;;1999.90;999.90;;;19.20;99.90;;;;;;4978439;28;20494;-72
2023/10/06 10:43:43;;;;;;;1999.90;999.90;;;19.30;99.90;;;;;;4975830;28;20049;-72
2023/10/06 10:46:08;;;;;;;1999.90;999.90;;;19.30;99.90;;;;;;4985244;28;20085;-72
2023/10/06 10:48:47;;;;;;;1999.90;999.90;;;19.40;99.90;;;;;;4980002;28;20518;-72
2023/10/06 10:51:14;;;;;;;1999.90;999.90;;;19.40;99.90;;;;;;4979703;28;20075;-72
2023/10/06 10:53:45;;;;;;;1999.90;999.90;;;19.30;99.90;;;;;;4982842;28;20517;-72
2023/10/06 10:56:32;;;;;;;1999.90;999.90;;;19.30;99.90;;;;;;4982310;28;20047;-72
2023/10/06 10:58:58;;;;;;;1999.90;999.90;;;19.30;99.90;;;;;;4973119;28;20415;-72
2023/10/06 11:01:38;;;;;;;1999.90;999.90;;;19.30;99.90;;;;;;4978686;28;20046;-72
2023/10/06 11:04:12;;;;;;;1999.90;999.90;;;19.30;99.90;;;;;;4983244;28;20092;-72
2023/10/06 11:06:43;;;;;;;;;;;19.40;99.90;;;;;;4977481;28;20469;-72
2023/10/06 11:09:28;;;;;;;1999.90;999.90;;;19.60;99.90;;;;;;4976434;28;20376;-72
2023/10/06 11:11:55;;;;;;;1999.90;999.90;;;19.70;99.90;;;;;;4999602;28;20046;-72
2023/10/06 11:14:25;;;;;;;1999.90;999.90;;;19.80;99.90;;;;;;4983698;28;20074;-73
2023/10/06 11:16:53;;;;;;;1999.90;999.90;;;19.90;99.90;;;;;;4981835;28;20091;-73
2023/10/06 11:19:19;;;;;;;1999.90;999.90;;;20.00;99.90;;;;;;4983348;28;20391;-72
2023/10/06 11:21:47;;;;;;;1999.90;999.90;;;20.10;99.90;;;;;;4969297;28;20054;-72
2023/10/06 11:24:26;;;;;;;1999.90;999.90;;;20.10;99.90;;;;;;4984613;28;20114;-72
2023/10/06 11:26:52;;;;;;;1999.90;999.90;;;20.30;99.90;;;;;;4969468;28;20050;-73
2023/10/06 11:29:31;;;;;;;1999.90;999.90;;;20.30;99.90;;;;;;4991411;28;20053;-72
2023/10/06 11:32:03;;;;;;;1999.90;999.90;;;20.30;99.90;;;;;;4973553;28;20502;-72
2023/10/06 11:34:28;;;;;;;1999.90;999.90;;;20.30;99.90;;;;;;4975354;28;20048;-72
2023/10/06 11:36:56;;;;;;;1999.90;999.90;;;20.20;99.90;;;;;;4981262;28;20168;-72
2023/10/06 11:39:23;;;;;;;1999.90;999.90;;;20.10;99.90;;;;;;4986447;28;20092;-73
2023/10/06 11:41:51;;;;;;;1999.90;999.90;;;20.10;99.90;;;;;;4981227;28;20061;-71
2023/10/06 11:44:18;;;;;;;1999.90;999.90;;;20.00;99.90;;;;;;4982266;28;20121;-72
2023/10/06 11:46:52;;;;;;;1999.90;999.90;;;19.90;99.90;;;;;;4977947;28;20074;-73
2023/10/06 11:49:20;;;;;;;1999.90;999.90;;;19.90;99.90;;;;;;4984659;28;20406;-73
2023/10/06 11:51:46;;;;;;;1999.90;999.90;;;19.90;99.90;;;;;;4986399;28;20504;-72
2023/10/06 11:54:12;;;;;;;1999.90;999.90;;;19.90;99.90;;;;;;4978111;28;20095;-73
2023/10/06 11:56:48;;;;;;;1999.90;999.90;;;20.00;99.90;;;;;;4985207;28;20573;-72
2023/10/06 11:59:22;;;;;;;1999.90;999.90;;;20.10;99.90;;;;;;4979917;28;20039;-72
2023/10/06 12:01:48;;;;;;;1999.90;999.90;;;20.30;99.90;;;;;;4971507;28;20089;-73
2023/10/06 12:04:32;;;;;;;1999.90;999.90;;;20.30;99.90;;;;;;4959943;28;20128;-74
2023/10/06 12:07:01;;;;;;;1999.90;999.90;;;20.30;99.90;;;;;;4976224;28;20505;-72
2023/10/06 12:09:33;;;;;;;97.55;92.45;;;20.20;99.90;;;;;;5022527;28;20043;-72
2023/10/06 12:11:59;;;;;;;1038.72;536.53;;;20.30;99.90;;;;;;4980529;28;20054;-73
2023/10/06 12:14:30;;;;;;;152.32;144.40;;;20.30;99.90;;;;;;5003518;28;20092;-72
2023/10/06 12:16:55;;;;;;;1047.72;545.20;;;20.20;99.90;;;;;;4982708;28;20160;-73
2023/10/06 12:19:24;;;;;;;155.52;147.50;;;20.20;99.90;;;;;;4977052;28;20492;-73
2023/10/06 12:21:50;;;;;;;1999.90;999.90;;;20.20;99.90;;;;;;4998454;28;20176;-73